sensor_id;sensor_type;location;lat;lon;timestamp;P1;durP1;ratioP1;P2;durP2;ratioP2
61200;SDS011;47065;52.898;6.992;2023-05-20T00:00:34;11.00;;;5.75;;
61200;SDS011;47065;52.898;6.992;2023-05-20T00:03:00;14.77;;;5.72;;
61200;SDS011;47065;52.898;6.992;2023-05-20T00:05:25;11.45;;;5.90;;
61200;SDS011;47065;52.898;6.992;2023-05-20T00:07:51;11.32;;;5.78;;
61200;SDS011;47065;52.898;6.992;2023-05-20T00:10:16;10.13;;;6.05;;
61200;SDS011;47065;52.898;6.992;2023-05-20T00:12:42;13.20;;;5.32;;
61200;SDS011;47065;52.898;6.992;2023-05-20T00:15:08;9.30;;;5.55;;
61200;SDS011;47065;52.898;6.992;2023-05-20T00:17:36;7.85;;;4.93;;
61200;SDS011;47065;52.898;6.992;2023-05-20T00:20:01;12.70;;;6.45;;
61200;SDS011;47065;52.898;6.992;2023-05-20T00:22:29;15.93;;;6.20;;
61200;SDS011;47065;52.898;6.992;2023-05-20T00:24:55;7.82;;;4.63;;
61200;SDS011;47065;52.898;6.992;2023-05-20T00:27:20;9.35;;;5.35;;
61200;SDS011;47065;52.898;6.992;2023-05-20T00:29:46;9.65;;;5.40;;
61200;SDS011;47065;52.898;6.992;2023-05-20T00:32:12;12.70;;;6.10;;
61200;SDS011;47065;52.898;6.992;2023-05-20T00:34:38;7.93;;;4.55;;
61200;SDS011;47065;52.898;6.992;2023-05-20T00:37:03;17.35;;;5.32;;
61200;SDS011;47065;52.898;6.992;2023-05-20T00:39:30;10.25;;;5.13;;
61200;SDS011;47065;52.898;6.992;2023-05-20T00:41:55;10.80;;;5.72;;
61200;SDS011;47065;52.898;6.992;2023-05-20T00:44:24;11.52;;;4.93;;
61200;SDS011;47065;52.898;6.992;2023-05-20T00:46:50;8.80;;;4.85;;
61200;SDS011;47065;52.898;6.992;2023-05-20T00:49:17;10.07;;;5.40;;
61200;SDS011;47065;52.898;6.992;2023-05-20T00:51:43;8.80;;;4.35;;
61200;SDS011;47065;52.898;6.992;2023-05-20T00:54:10;8.60;;;4.53;;
61200;SDS011;47065;52.898;6.992;2023-05-20T00:56:36;10.60;;;4.90;;
61200;SDS011;47065;52.898;6.992;2023-05-20T00:59:02;8.68;;;4.75;;
61200;SDS011;47065;52.898;6.992;2023-05-20T01:01:28;11.95;;;5.03;;
61200;SDS011;47065;52.898;6.992;2023-05-20T01:03:53;15.93;;;6.13;;
61200;SDS011;47065;52.898;6.992;2023-05-20T01:06:19;13.73;;;5.93;;
61200;SDS011;47065;52.898;6.992;2023-05-20T01:08:45;12.05;;;4.60;;
61200;SDS011;47065;52.898;6.992;2023-05-20T01:14:02;6.07;;;4.20;;
61200;SDS011;47065;52.898;6.992;2023-05-20T01:16:32;6.68;;;4.20;;
61200;SDS011;47065;52.898;6.992;2023-05-20T01:18:59;13.63;;;4.47;;
61200;SDS011;47065;52.898;6.992;2023-05-20T01:21:29;9.32;;;4.80;;
61200;SDS011;47065;52.898;6.992;2023-05-20T01:23:56;7.28;;;4.38;;
61200;SDS011;47065;52.898;6.992;2023-05-20T01:26:21;10.63;;;3.78;;
61200;SDS011;47065;52.898;6.992;2023-05-20T01:28:51;8.93;;;4.30;;
61200;SDS011;47065;52.898;6.992;2023-05-20T01:31:19;12.50;;;4.63;;
61200;SDS011;47065;52.898;6.992;2023-05-20T01:33:49;8.88;;;5.18;;
61200;SDS011;47065;52.898;6.992;2023-05-20T01:36:18;9.73;;;4.72;;
61200;SDS011;47065;52.898;6.992;2023-05-20T01:38:46;7.07;;;4.35;;
61200;SDS011;47065;52.898;6.992;2023-05-20T01:41:13;7.45;;;3.83;;
61200;SDS011;47065;52.898;6.992;2023-05-20T01:43:39;8.13;;;4.30;;
61200;SDS011;47065;52.898;6.992;2023-05-20T01:46:06;7.38;;;3.65;;
61200;SDS011;47065;52.898;6.992;2023-05-20T01:48:31;5.65;;;3.47;;
61200;SDS011;47065;52.898;6.992;2023-05-20T01:50:57;5.32;;;3.75;;
61200;SDS011;47065;52.898;6.992;2023-05-20T01:53:23;10.80;;;5.15;;
61200;SDS011;47065;52.898;6.992;2023-05-20T01:55:48;6.40;;;3.70;;
61200;SDS011;47065;52.898;6.992;2023-05-20T01:58:14;6.57;;;3.78;;
61200;SDS011;47065;52.898;6.992;2023-05-20T02:00:39;7.18;;;3.70;;
61200;SDS011;47065;52.898;6.992;2023-05-20T02:03:05;5.45;;;3.47;;
61200;SDS011;47065;52.898;6.992;2023-05-20T02:05:31;5.20;;;3.63;;
61200;SDS011;47065;52.898;6.992;2023-05-20T02:07:56;6.82;;;3.40;;
61200;SDS011;47065;52.898;6.992;2023-05-20T02:10:22;7.38;;;3.72;;
61200;SDS011;47065;52.898;6.992;2023-05-20T02:12:48;10.50;;;3.97;;
61200;SDS011;47065;52.898;6.992;2023-05-20T02:15:13;6.13;;;3.70;;
61200;SDS011;47065;52.898;6.992;2023-05-20T02:17:39;4.95;;;3.40;;
61200;SDS011;47065;52.898;6.992;2023-05-20T02:20:07;3.92;;;3.15;;
61200;SDS011;47065;52.898;6.992;2023-05-20T02:22:34;9.73;;;5.05;;
61200;SDS011;47065;52.898;6.992;2023-05-20T02:25:00;5.75;;;3.50;;
61200;SDS011;47065;52.898;6.992;2023-05-20T02:27:26;4.93;;;3.85;;
61200;SDS011;47065;52.898;6.992;2023-05-20T02:29:51;7.82;;;3.92;;
61200;SDS011;47065;52.898;6.992;2023-05-20T02:32:17;5.30;;;3.45;;
61200;SDS011;47065;52.898;6.992;2023-05-20T02:34:44;8.75;;;3.72;;
61200;SDS011;47065;52.898;6.992;2023-05-20T02:37:10;6.10;;;3.60;;
61200;SDS011;47065;52.898;6.992;2023-05-20T02:39:35;7.50;;;3.67;;
61200;SDS011;47065;52.898;6.992;2023-05-20T02:42:01;5.50;;;3.22;;
61200;SDS011;47065;52.898;6.992;2023-05-20T02:44:28;7.47;;;4.18;;
61200;SDS011;47065;52.898;6.992;2023-05-20T02:46:54;8.88;;;3.45;;
61200;SDS011;47065;52.898;6.992;2023-05-20T02:49:20;4.32;;;3.10;;
61200;SDS011;47065;52.898;6.992;2023-05-20T02:51:45;8.13;;;3.38;;
61200;SDS011;47065;52.898;6.992;2023-05-20T02:54:11;5.05;;;3.13;;
61200;SDS011;47065;52.898;6.992;2023-05-20T02:56:36;6.35;;;3.53;;
61200;SDS011;47065;52.898;6.992;2023-05-20T02:59:02;4.78;;;3.35;;
61200;SDS011;47065;52.898;6.992;2023-05-20T03:01:28;4.90;;;3.63;;
61200;SDS011;47065;52.898;6.992;2023-05-20T03:03:54;6.68;;;3.35;;
61200;SDS011;47065;52.898;6.992;2023-05-20T03:06:20;4.70;;;3.17;;
61200;SDS011;47065;52.898;6.992;2023-05-20T03:08:45;5.60;;;3.22;;
61200;SDS011;47065;52.898;6.992;2023-05-20T03:11:11;4.10;;;3.00;;
61200;SDS011;47065;52.898;6.992;2023-05-20T03:13:37;6.28;;;2.50;;
61200;SDS011;47065;52.898;6.992;2023-05-20T03:16:02;9.57;;;3.30;;
61200;SDS011;47065;52.898;6.992;2023-05-20T03:18:28;7.97;;;4.05;;
61200;SDS011;47065;52.898;6.992;2023-05-20T03:20:54;7.40;;;3.10;;
61200;SDS011;47065;52.898;6.992;2023-05-20T03:23:20;3.75;;;2.60;;
61200;SDS011;47065;52.898;6.992;2023-05-20T03:25:45;10.60;;;3.47;;
61200;SDS011;47065;52.898;6.992;2023-05-20T03:28:12;6.05;;;3.65;;
61200;SDS011;47065;52.898;6.992;2023-05-20T03:30:37;5.47;;;2.80;;
61200;SDS011;47065;52.898;6.992;2023-05-20T03:33:03;5.40;;;2.90;;
61200;SDS011;47065;52.898;6.992;2023-05-20T03:35:29;5.57;;;3.10;;
61200;SDS011;47065;52.898;6.992;2023-05-20T03:37:55;7.07;;;3.20;;
61200;SDS011;47065;52.898;6.992;2023-05-20T03:40:22;6.43;;;3.25;;
61200;SDS011;47065;52.898;6.992;2023-05-20T03:42:48;5.50;;;3.20;;
61200;SDS011;47065;52.898;6.992;2023-05-20T03:45:15;8.00;;;2.80;;
61200;SDS011;47065;52.898;6.992;2023-05-20T03:47:40;5.50;;;2.70;;
61200;SDS011;47065;52.898;6.992;2023-05-20T03:50:06;5.53;;;2.35;;
61200;SDS011;47065;52.898;6.992;2023-05-20T03:52:32;10.52;;;2.97;;
61200;SDS011;47065;52.898;6.992;2023-05-20T03:54:58;7.38;;;2.42;;
61200;SDS011;47065;52.898;6.992;2023-05-20T03:57:24;4.85;;;2.40;;
61200;SDS011;47065;52.898;6.992;2023-05-20T03:59:50;4.78;;;2.10;;
61200;SDS011;47065;52.898;6.992;2023-05-20T04:02:15;5.50;;;2.63;;
61200;SDS011;47065;52.898;6.992;2023-05-20T04:04:41;5.60;;;3.38;;
61200;SDS011;47065;52.898;6.992;2023-05-20T04:07:07;4.10;;;2.53;;
61200;SDS011;47065;52.898;6.992;2023-05-20T04:09:33;5.07;;;2.30;;
61200;SDS011;47065;52.898;6.992;2023-05-20T04:11:59;4.47;;;2.10;;
61200;SDS011;47065;52.898;6.992;2023-05-20T04:14:25;6.35;;;3.03;;
61200;SDS011;47065;52.898;6.992;2023-05-20T04:16:51;6.10;;;2.30;;
61200;SDS011;47065;52.898;6.992;2023-05-20T04:19:17;7.65;;;2.85;;
61200;SDS011;47065;52.898;6.992;2023-05-20T04:21:43;5.15;;;2.42;;
61200;SDS011;47065;52.898;6.992;2023-05-20T04:24:09;4.82;;;2.30;;
61200;SDS011;47065;52.898;6.992;2023-05-20T04:26:35;6.70;;;2.00;;
61200;SDS011;47065;52.898;6.992;2023-05-20T04:29:01;2.92;;;1.90;;
61200;SDS011;47065;52.898;6.992;2023-05-20T04:31:28;4.68;;;2.15;;
61200;SDS011;47065;52.898;6.992;2023-05-20T04:33:55;5.28;;;2.20;;
61200;SDS011;47065;52.898;6.992;2023-05-20T04:36:21;5.53;;;2.35;;
61200;SDS011;47065;52.898;6.992;2023-05-20T04:38:52;4.40;;;2.00;;
61200;SDS011;47065;52.898;6.992;2023-05-20T04:41:18;4.93;;;2.53;;
61200;SDS011;47065;52.898;6.992;2023-05-20T04:43:44;4.35;;;1.65;;
61200;SDS011;47065;52.898;6.992;2023-05-20T04:46:09;5.03;;;2.10;;
61200;SDS011;47065;52.898;6.992;2023-05-20T04:48:35;7.25;;;2.15;;
61200;SDS011;47065;52.898;6.992;2023-05-20T04:51:01;5.45;;;2.05;;
61200;SDS011;47065;52.898;6.992;2023-05-20T04:53:27;3.53;;;2.10;;
61200;SDS011;47065;52.898;6.992;2023-05-20T04:55:54;4.75;;;1.80;;
61200;SDS011;47065;52.898;6.992;2023-05-20T04:58:21;2.38;;;1.92;;
61200;SDS011;47065;52.898;6.992;2023-05-20T05:00:48;2.75;;;1.58;;
61200;SDS011;47065;52.898;6.992;2023-05-20T05:03:15;8.07;;;3.30;;
61200;SDS011;47065;52.898;6.992;2023-05-20T05:05:41;3.83;;;1.70;;
61200;SDS011;47065;52.898;6.992;2023-05-20T05:08:07;6.05;;;1.90;;
61200;SDS011;47065;52.898;6.992;2023-05-20T05:10:34;4.97;;;2.15;;
61200;SDS011;47065;52.898;6.992;2023-05-20T05:13:00;3.97;;;1.85;;
61200;SDS011;47065;52.898;6.992;2023-05-20T05:15:26;5.85;;;1.98;;
61200;SDS011;47065;52.898;6.992;2023-05-20T05:17:52;2.30;;;1.70;;
61200;SDS011;47065;52.898;6.992;2023-05-20T05:20:17;5.93;;;1.48;;
61200;SDS011;47065;52.898;6.992;2023-05-20T05:22:43;4.38;;;2.53;;
61200;SDS011;47065;52.898;6.992;2023-05-20T05:25:09;3.67;;;1.35;;
61200;SDS011;47065;52.898;6.992;2023-05-20T05:27:35;2.55;;;1.15;;
61200;SDS011;47065;52.898;6.992;2023-05-20T05:30:02;2.50;;;1.08;;
61200;SDS011;47065;52.898;6.992;2023-05-20T05:32:29;3.55;;;1.38;;
61200;SDS011;47065;52.898;6.992;2023-05-20T05:34:54;1.83;;;1.42;;
61200;SDS011;47065;52.898;6.992;2023-05-20T05:37:20;6.50;;;1.70;;
61200;SDS011;47065;52.898;6.992;2023-05-20T05:39:46;2.47;;;1.23;;
61200;SDS011;47065;52.898;6.992;2023-05-20T05:42:11;3.00;;;1.50;;
61200;SDS011;47065;52.898;6.992;2023-05-20T05:44:37;3.72;;;1.17;;
61200;SDS011;47065;52.898;6.992;2023-05-20T05:47:03;5.15;;;1.20;;
61200;SDS011;47065;52.898;6.992;2023-05-20T05:49:30;2.20;;;1.50;;
61200;SDS011;47065;52.898;6.992;2023-05-20T05:51:56;4.55;;;2.00;;
61200;SDS011;47065;52.898;6.992;2023-05-20T05:54:22;4.35;;;2.58;;
61200;SDS011;47065;52.898;6.992;2023-05-20T05:56:49;3.70;;;1.80;;
61200;SDS011;47065;52.898;6.992;2023-05-20T05:59:16;2.10;;;1.50;;
61200;SDS011;47065;52.898;6.992;2023-05-20T06:01:41;1.85;;;1.35;;
61200;SDS011;47065;52.898;6.992;2023-05-20T06:04:07;2.95;;;1.20;;
61200;SDS011;47065;52.898;6.992;2023-05-20T06:06:33;1.60;;;1.33;;
61200;SDS011;47065;52.898;6.992;2023-05-20T06:08:58;2.03;;;1.25;;
61200;SDS011;47065;52.898;6.992;2023-05-20T06:11:24;3.25;;;1.15;;
61200;SDS011;47065;52.898;6.992;2023-05-20T06:13:50;2.00;;;1.17;;
61200;SDS011;47065;52.898;6.992;2023-05-20T06:16:16;3.45;;;1.20;;
61200;SDS011;47065;52.898;6.992;2023-05-20T06:18:42;3.67;;;1.60;;
61200;SDS011;47065;52.898;6.992;2023-05-20T06:21:08;2.05;;;1.20;;
61200;SDS011;47065;52.898;6.992;2023-05-20T06:23:33;3.45;;;1.48;;
61200;SDS011;47065;52.898;6.992;2023-05-20T06:25:59;2.88;;;1.60;;
61200;SDS011;47065;52.898;6.992;2023-05-20T06:28:25;2.80;;;1.38;;
61200;SDS011;47065;52.898;6.992;2023-05-20T06:30:53;3.55;;;1.35;;
61200;SDS011;47065;52.898;6.992;2023-05-20T06:33:19;3.03;;;1.50;;
61200;SDS011;47065;52.898;6.992;2023-05-20T06:35:45;4.50;;;1.52;;
61200;SDS011;47065;52.898;6.992;2023-05-20T06:38:11;3.35;;;1.70;;
61200;SDS011;47065;52.898;6.992;2023-05-20T06:40:37;3.47;;;1.40;;
61200;SDS011;47065;52.898;6.992;2023-05-20T06:43:02;6.30;;;1.50;;
61200;SDS011;47065;52.898;6.992;2023-05-20T06:45:28;1.60;;;1.27;;
61200;SDS011;47065;52.898;6.992;2023-05-20T06:47:54;2.70;;;1.48;;
61200;SDS011;47065;52.898;6.992;2023-05-20T06:50:19;2.60;;;1.50;;
61200;SDS011;47065;52.898;6.992;2023-05-20T06:52:45;4.18;;;1.25;;
61200;SDS011;47065;52.898;6.992;2023-05-20T06:55:11;2.50;;;1.50;;
61200;SDS011;47065;52.898;6.992;2023-05-20T06:57:37;4.15;;;2.00;;
61200;SDS011;47065;52.898;6.992;2023-05-20T07:00:03;1.88;;;1.67;;
61200;SDS011;47065;52.898;6.992;2023-05-20T07:02:30;8.23;;;2.03;;
61200;SDS011;47065;52.898;6.992;2023-05-20T07:04:57;2.50;;;1.85;;
61200;SDS011;47065;52.898;6.992;2023-05-20T07:07:23;3.13;;;1.50;;
61200;SDS011;47065;52.898;6.992;2023-05-20T07:09:48;2.13;;;1.80;;
61200;SDS011;47065;52.898;6.992;2023-05-20T07:12:14;2.08;;;1.23;;
61200;SDS011;47065;52.898;6.992;2023-05-20T07:14:41;5.20;;;1.90;;
61200;SDS011;47065;52.898;6.992;2023-05-20T07:17:07;4.03;;;1.85;;
61200;SDS011;47065;52.898;6.992;2023-05-20T07:19:32;3.20;;;1.92;;
61200;SDS011;47065;52.898;6.992;2023-05-20T07:21:58;4.80;;;2.15;;
61200;SDS011;47065;52.898;6.992;2023-05-20T07:24:24;5.20;;;2.30;;
61200;SDS011;47065;52.898;6.992;2023-05-20T07:26:50;4.80;;;1.67;;
61200;SDS011;47065;52.898;6.992;2023-05-20T07:29:16;2.63;;;2.22;;
61200;SDS011;47065;52.898;6.992;2023-05-20T07:31:41;3.75;;;2.30;;
61200;SDS011;47065;52.898;6.992;2023-05-20T07:34:07;2.88;;;1.70;;
61200;SDS011;47065;52.898;6.992;2023-05-20T07:36:33;3.50;;;1.73;;
61200;SDS011;47065;52.898;6.992;2023-05-20T07:38:59;3.70;;;1.55;;
61200;SDS011;47065;52.898;6.992;2023-05-20T07:41:24;4.55;;;1.42;;
61200;SDS011;47065;52.898;6.992;2023-05-20T07:43:51;4.97;;;2.35;;
61200;SDS011;47065;52.898;6.992;2023-05-20T07:46:16;3.15;;;1.88;;
61200;SDS011;47065;52.898;6.992;2023-05-20T07:48:42;3.83;;;1.73;;
61200;SDS011;47065;52.898;6.992;2023-05-20T07:51:09;2.55;;;1.60;;
61200;SDS011;47065;52.898;6.992;2023-05-20T07:53:35;3.95;;;2.65;;
61200;SDS011;47065;52.898;6.992;2023-05-20T07:56:01;3.33;;;2.40;;
61200;SDS011;47065;52.898;6.992;2023-05-20T07:58:27;2.60;;;1.80;;
61200;SDS011;47065;52.898;6.992;2023-05-20T08:00:53;3.30;;;1.85;;
61200;SDS011;47065;52.898;6.992;2023-05-20T08:03:18;4.03;;;1.70;;
61200;SDS011;47065;52.898;6.992;2023-05-20T08:05:46;4.35;;;1.90;;
61200;SDS011;47065;52.898;6.992;2023-05-20T08:08:11;3.90;;;1.83;;
61200;SDS011;47065;52.898;6.992;2023-05-20T08:10:37;1.45;;;1.35;;
61200;SDS011;47065;52.898;6.992;2023-05-20T08:13:03;3.13;;;1.80;;
61200;SDS011;47065;52.898;6.992;2023-05-20T08:15:28;4.63;;;2.58;;
61200;SDS011;47065;52.898;6.992;2023-05-20T08:17:54;3.40;;;1.85;;
61200;SDS011;47065;52.898;6.992;2023-05-20T08:20:20;3.05;;;2.00;;
61200;SDS011;47065;52.898;6.992;2023-05-20T08:22:46;4.07;;;1.70;;
61200;SDS011;47065;52.898;6.992;2023-05-20T08:25:11;4.97;;;2.22;;
61200;SDS011;47065;52.898;6.992;2023-05-20T08:27:37;4.97;;;1.80;;
61200;SDS011;47065;52.898;6.992;2023-05-20T08:30:04;2.22;;;1.98;;
61200;SDS011;47065;52.898;6.992;2023-05-20T08:32:32;3.03;;;1.70;;
61200;SDS011;47065;52.898;6.992;2023-05-20T08:34:57;4.00;;;1.80;;
61200;SDS011;47065;52.898;6.992;2023-05-20T08:37:25;4.82;;;2.30;;
61200;SDS011;47065;52.898;6.992;2023-05-20T08:39:52;2.58;;;1.60;;
61200;SDS011;47065;52.898;6.992;2023-05-20T08:42:21;2.00;;;1.80;;
61200;SDS011;47065;52.898;6.992;2023-05-20T08:44:48;5.05;;;2.38;;
61200;SDS011;47065;52.898;6.992;2023-05-20T08:47:16;3.20;;;1.95;;
61200;SDS011;47065;52.898;6.992;2023-05-20T08:49:43;4.50;;;1.58;;
61200;SDS011;47065;52.898;6.992;2023-05-20T08:52:09;3.15;;;1.90;;
61200;SDS011;47065;52.898;6.992;2023-05-20T08:54:44;4.07;;;1.42;;
61200;SDS011;47065;52.898;6.992;2023-05-20T08:57:12;1.98;;;1.38;;
61200;SDS011;47065;52.898;6.992;2023-05-20T08:59:44;2.85;;;1.83;;
61200;SDS011;47065;52.898;6.992;2023-05-20T09:02:13;5.22;;;1.85;;
61200;SDS011;47065;52.898;6.992;2023-05-20T09:04:39;2.72;;;1.73;;
61200;SDS011;47065;52.898;6.992;2023-05-20T09:07:05;2.35;;;1.70;;
61200;SDS011;47065;52.898;6.992;2023-05-20T09:09:31;1.88;;;1.65;;
61200;SDS011;47065;52.898;6.992;2023-05-20T09:11:58;2.67;;;1.58;;
61200;SDS011;47065;52.898;6.992;2023-05-20T09:14:24;3.55;;;1.75;;
61200;SDS011;47065;52.898;6.992;2023-05-20T09:16:52;3.50;;;2.10;;
61200;SDS011;47065;52.898;6.992;2023-05-20T09:19:21;1.83;;;1.52;;
61200;SDS011;47065;52.898;6.992;2023-05-20T09:21:47;2.90;;;1.80;;
61200;SDS011;47065;52.898;6.992;2023-05-20T09:24:18;3.58;;;1.70;;
61200;SDS011;47065;52.898;6.992;2023-05-20T09:26:46;6.20;;;1.60;;
61200;SDS011;47065;52.898;6.992;2023-05-20T09:29:12;4.25;;;1.90;;
61200;SDS011;47065;52.898;6.992;2023-05-20T09:31:37;5.35;;;1.63;;
61200;SDS011;47065;52.898;6.992;2023-05-20T09:34:04;2.17;;;1.73;;
61200;SDS011;47065;52.898;6.992;2023-05-20T09:36:30;2.83;;;1.67;;
61200;SDS011;47065;52.898;6.992;2023-05-20T09:38:59;3.33;;;1.58;;
61200;SDS011;47065;52.898;6.992;2023-05-20T09:41:37;8.52;;;1.73;;
61200;SDS011;47065;52.898;6.992;2023-05-20T09:44:09;3.97;;;2.05;;
61200;SDS011;47065;52.898;6.992;2023-05-20T09:46:36;3.25;;;1.40;;
61200;SDS011;47065;52.898;6.992;2023-05-20T09:49:04;4.80;;;1.70;;
61200;SDS011;47065;52.898;6.992;2023-05-20T09:51:32;5.50;;;1.42;;
61200;SDS011;47065;52.898;6.992;2023-05-20T09:53:58;4.60;;;1.67;;
61200;SDS011;47065;52.898;6.992;2023-05-20T09:56:27;1.95;;;1.52;;
61200;SDS011;47065;52.898;6.992;2023-05-20T09:58:53;6.88;;;1.65;;
61200;SDS011;47065;52.898;6.992;2023-05-20T10:01:22;2.90;;;1.85;;
61200;SDS011;47065;52.898;6.992;2023-05-20T10:03:49;2.63;;;1.50;;
61200;SDS011;47065;52.898;6.992;2023-05-20T10:10:18;3.20;;;1.23;;
61200;SDS011;47065;52.898;6.992;2023-05-20T10:12:28;2.13;;;1.27;;
61200;SDS011;47065;52.898;6.992;2023-05-20T10:15:16;3.83;;;1.10;;
61200;SDS011;47065;52.898;6.992;2023-05-20T10:18:05;3.47;;;1.33;;
61200;SDS011;47065;52.898;6.992;2023-05-20T10:20:52;3.58;;;1.70;;
61200;SDS011;47065;52.898;6.992;2023-05-20T10:23:26;1.95;;;1.58;;
61200;SDS011;47065;52.898;6.992;2023-05-20T10:25:53;3.40;;;1.38;;
61200;SDS011;47065;52.898;6.992;2023-05-20T10:28:31;4.43;;;1.20;;
61200;SDS011;47065;52.898;6.992;2023-05-20T10:31:00;3.35;;;1.48;;
61200;SDS011;47065;52.898;6.992;2023-05-20T10:33:26;7.57;;;1.23;;
61200;SDS011;47065;52.898;6.992;2023-05-20T10:35:53;4.70;;;1.92;;
61200;SDS011;47065;52.898;6.992;2023-05-20T10:38:23;2.97;;;1.30;;
61200;SDS011;47065;52.898;6.992;2023-05-20T10:40:49;4.65;;;1.73;;
61200;SDS011;47065;52.898;6.992;2023-05-20T10:43:24;1.40;;;1.30;;
61200;SDS011;47065;52.898;6.992;2023-05-20T10:45:53;1.60;;;1.10;;
61200;SDS011;47065;52.898;6.992;2023-05-20T10:48:27;4.25;;;1.63;;
61200;SDS011;47065;52.898;6.992;2023-05-20T10:50:57;2.88;;;1.20;;
61200;SDS011;47065;52.898;6.992;2023-05-20T10:53:25;4.32;;;1.83;;
61200;SDS011;47065;52.898;6.992;2023-05-20T10:55:52;2.03;;;1.40;;
61200;SDS011;47065;52.898;6.992;2023-05-20T10:58:22;1.95;;;1.25;;
61200;SDS011;47065;52.898;6.992;2023-05-20T11:00:49;4.65;;;2.15;;
61200;SDS011;47065;52.898;6.992;2023-05-20T11:03:17;6.40;;;1.70;;
61200;SDS011;47065;52.898;6.992;2023-05-20T11:05:46;3.03;;;1.55;;
61200;SDS011;47065;52.898;6.992;2023-05-20T11:08:12;2.67;;;1.50;;
61200;SDS011;47065;52.898;6.992;2023-05-20T11:10:38;2.55;;;1.60;;
61200;SDS011;47065;52.898;6.992;2023-05-20T11:13:06;4.43;;;1.65;;
61200;SDS011;47065;52.898;6.992;2023-05-20T11:15:33;3.45;;;2.20;;
61200;SDS011;47065;52.898;6.992;2023-05-20T11:18:00;1.88;;;1.60;;
61200;SDS011;47065;52.898;6.992;2023-05-20T11:20:27;2.38;;;1.08;;
61200;SDS011;47065;52.898;6.992;2023-05-20T11:22:53;2.75;;;1.38;;
61200;SDS011;47065;52.898;6.992;2023-05-20T11:25:21;6.03;;;1.52;;
61200;SDS011;47065;52.898;6.992;2023-05-20T11:27:49;3.50;;;1.50;;
61200;SDS011;47065;52.898;6.992;2023-05-20T11:30:16;6.45;;;1.80;;
61200;SDS011;47065;52.898;6.992;2023-05-20T11:32:43;2.88;;;1.40;;
61200;SDS011;47065;52.898;6.992;2023-05-20T11:35:25;1.70;;;1.35;;
61200;SDS011;47065;52.898;6.992;2023-05-20T11:38:02;3.60;;;1.23;;
61200;SDS011;47065;52.898;6.992;2023-05-20T11:40:30;3.85;;;1.65;;
61200;SDS011;47065;52.898;6.992;2023-05-20T11:42:57;4.10;;;1.58;;
61200;SDS011;47065;52.898;6.992;2023-05-20T11:45:23;3.28;;;1.40;;
61200;SDS011;47065;52.898;6.992;2023-05-20T11:47:58;8.75;;;2.25;;
61200;SDS011;47065;52.898;6.992;2023-05-20T11:50:27;3.30;;;1.50;;
61200;SDS011;47065;52.898;6.992;2023-05-20T11:52:58;4.57;;;2.10;;
61200;SDS011;47065;52.898;6.992;2023-05-20T11:55:27;4.43;;;1.45;;
61200;SDS011;47065;52.898;6.992;2023-05-20T11:57:53;5.10;;;1.80;;
61200;SDS011;47065;52.898;6.992;2023-05-20T12:00:21;3.67;;;1.52;;
61200;SDS011;47065;52.898;6.992;2023-05-20T12:02:47;3.15;;;1.50;;
61200;SDS011;47065;52.898;6.992;2023-05-20T12:05:13;4.15;;;1.65;;
61200;SDS011;47065;52.898;6.992;2023-05-20T12:07:39;4.72;;;1.25;;
61200;SDS011;47065;52.898;6.992;2023-05-20T12:10:05;4.93;;;1.58;;
61200;SDS011;47065;52.898;6.992;2023-05-20T12:12:31;5.85;;;1.40;;
61200;SDS011;47065;52.898;6.992;2023-05-20T12:14:57;4.30;;;1.60;;
61200;SDS011;47065;52.898;6.992;2023-05-20T12:17:22;4.72;;;1.73;;
61200;SDS011;47065;52.898;6.992;2023-05-20T12:19:48;4.63;;;1.67;;
61200;SDS011;47065;52.898;6.992;2023-05-20T12:22:14;2.33;;;1.42;;
61200;SDS011;47065;52.898;6.992;2023-05-20T12:24:39;2.53;;;1.55;;
61200;SDS011;47065;52.898;6.992;2023-05-20T12:27:05;5.05;;;1.40;;
61200;SDS011;47065;52.898;6.992;2023-05-20T12:29:32;7.40;;;1.58;;
61200;SDS011;47065;52.898;6.992;2023-05-20T12:31:57;4.55;;;1.25;;
61200;SDS011;47065;52.898;6.992;2023-05-20T12:34:23;2.80;;;1.23;;
61200;SDS011;47065;52.898;6.992;2023-05-20T12:36:49;4.93;;;1.50;;
61200;SDS011;47065;52.898;6.992;2023-05-20T12:39:15;5.03;;;1.70;;
61200;SDS011;47065;52.898;6.992;2023-05-20T12:41:42;2.42;;;1.50;;
61200;SDS011;47065;52.898;6.992;2023-05-20T12:44:08;3.45;;;1.67;;
61200;SDS011;47065;52.898;6.992;2023-05-20T12:46:34;4.50;;;1.30;;
61200;SDS011;47065;52.898;6.992;2023-05-20T12:49:01;4.50;;;1.40;;
61200;SDS011;47065;52.898;6.992;2023-05-20T12:51:27;5.00;;;1.50;;
61200;SDS011;47065;52.898;6.992;2023-05-20T12:53:53;4.35;;;1.23;;
61200;SDS011;47065;52.898;6.992;2023-05-20T12:56:18;1.70;;;1.10;;
61200;SDS011;47065;52.898;6.992;2023-05-20T12:58:45;3.55;;;1.42;;
61200;SDS011;47065;52.898;6.992;2023-05-20T13:01:10;4.70;;;1.23;;
61200;SDS011;47065;52.898;6.992;2023-05-20T13:03:36;3.05;;;1.20;;
61200;SDS011;47065;52.898;6.992;2023-05-20T13:06:02;2.80;;;1.52;;
61200;SDS011;47065;52.898;6.992;2023-05-20T13:08:28;3.60;;;1.30;;
61200;SDS011;47065;52.898;6.992;2023-05-20T13:10:54;3.10;;;1.48;;
61200;SDS011;47065;52.898;6.992;2023-05-20T13:13:20;4.68;;;1.17;;
61200;SDS011;47065;52.898;6.992;2023-05-20T13:15:49;2.35;;;1.25;;
61200;SDS011;47065;52.898;6.992;2023-05-20T13:18:15;3.38;;;1.25;;
61200;SDS011;47065;52.898;6.992;2023-05-20T13:20:43;5.32;;;1.55;;
61200;SDS011;47065;52.898;6.992;2023-05-20T13:23:09;7.22;;;1.30;;
61200;SDS011;47065;52.898;6.992;2023-05-20T13:25:36;3.63;;;1.30;;
61200;SDS011;47065;52.898;6.992;2023-05-20T13:28:02;2.83;;;1.10;;
61200;SDS011;47065;52.898;6.992;2023-05-20T13:30:28;6.95;;;1.40;;
61200;SDS011;47065;52.898;6.992;2023-05-20T13:32:54;3.55;;;1.17;;
61200;SDS011;47065;52.898;6.992;2023-05-20T13:35:20;3.15;;;1.40;;
61200;SDS011;47065;52.898;6.992;2023-05-20T13:37:46;1.48;;;1.20;;
61200;SDS011;47065;52.898;6.992;2023-05-20T13:40:12;3.17;;;1.25;;
61200;SDS011;47065;52.898;6.992;2023-05-20T13:42:38;1.35;;;1.25;;
61200;SDS011;47065;52.898;6.992;2023-05-20T13:45:03;4.22;;;1.30;;
61200;SDS011;47065;52.898;6.992;2023-05-20T13:47:30;3.03;;;1.20;;
61200;SDS011;47065;52.898;6.992;2023-05-20T13:49:56;3.60;;;1.38;;
61200;SDS011;47065;52.898;6.992;2023-05-20T13:52:21;3.55;;;1.42;;
61200;SDS011;47065;52.898;6.992;2023-05-20T13:54:47;5.18;;;1.55;;
61200;SDS011;47065;52.898;6.992;2023-05-20T13:57:13;5.43;;;1.27;;
61200;SDS011;47065;52.898;6.992;2023-05-20T13:59:39;4.53;;;1.27;;
61200;SDS011;47065;52.898;6.992;2023-05-20T14:02:05;3.03;;;1.30;;
61200;SDS011;47065;52.898;6.992;2023-05-20T14:04:32;2.13;;;1.23;;
61200;SDS011;47065;52.898;6.992;2023-05-20T14:07:06;3.95;;;1.35;;
61200;SDS011;47065;52.898;6.992;2023-05-20T14:09:32;2.22;;;1.50;;
61200;SDS011;47065;52.898;6.992;2023-05-20T14:11:58;6.60;;;2.22;;
61200;SDS011;47065;52.898;6.992;2023-05-20T14:14:23;3.38;;;1.17;;
61200;SDS011;47065;52.898;6.992;2023-05-20T14:16:49;4.72;;;1.38;;
61200;SDS011;47065;52.898;6.992;2023-05-20T14:19:14;3.63;;;1.33;;
61200;SDS011;47065;52.898;6.992;2023-05-20T14:21:40;2.03;;;1.10;;
61200;SDS011;47065;52.898;6.992;2023-05-20T14:24:06;3.92;;;1.60;;
61200;SDS011;47065;52.898;6.992;2023-05-20T14:26:32;1.58;;;1.10;;
61200;SDS011;47065;52.898;6.992;2023-05-20T14:28:58;2.38;;;1.17;;
61200;SDS011;47065;52.898;6.992;2023-05-20T14:31:25;1.70;;;1.13;;
61200;SDS011;47065;52.898;6.992;2023-05-20T14:33:51;1.67;;;1.02;;
61200;SDS011;47065;52.898;6.992;2023-05-20T14:36:17;2.42;;;1.33;;
61200;SDS011;47065;52.898;6.992;2023-05-20T14:38:42;3.63;;;1.60;;
61200;SDS011;47065;52.898;6.992;2023-05-20T14:41:08;3.80;;;0.95;;
61200;SDS011;47065;52.898;6.992;2023-05-20T14:43:33;1.95;;;1.13;;
61200;SDS011;47065;52.898;6.992;2023-05-20T14:46:00;1.38;;;1.20;;
61200;SDS011;47065;52.898;6.992;2023-05-20T14:48:27;3.28;;;1.08;;